createdAt,value
2017-09-18T00:00:22.596Z,101193.89
2017-09-18T00:02:51.047Z,101195.32
2017-09-18T00:05:19.512Z,101194.89
2017-09-18T00:07:47.996Z,101195.36
2017-09-18T00:10:16.480Z,101198.33
2017-09-18T00:12:44.931Z,101201.36
2017-09-18T00:15:14.135Z,101200.50
2017-09-18T00:17:43.353Z,101197.61
2017-09-18T00:20:11.775Z,101193.38
2017-09-18T00:22:40.329Z,101193.84
2017-09-18T00:25:08.763Z,101193.34
2017-09-18T00:27:37.224Z,101182.66
2017-09-18T00:30:05.649Z,101184.88
2017-09-18T00:32:34.868Z,101183.31
2017-09-18T00:35:03.304Z,101179.48
2017-09-18T00:37:31.785Z,101175.63
2017-09-18T00:40:00.980Z,101170.84
2017-09-18T00:42:30.228Z,101177.77
2017-09-18T00:44:58.684Z,101183.34
2017-09-18T00:47:27.871Z,101173.48
2017-09-18T00:49:56.319Z,101172.71
2017-09-18T00:52:24.744Z,101174.92
2017-09-18T00:54:53.961Z,101168.86
2017-09-18T00:57:22.392Z,101168.80
2017-09-18T00:59:50.841Z,101169.25
2017-09-18T01:02:19.268Z,101160.73
2017-09-18T01:04:47.724Z,101159.97
2017-09-18T01:07:16.165Z,101164.72
2017-09-18T01:09:44.656Z,101162.54
2017-09-18T01:12:13.079Z,101159.59
2017-09-18T01:14:41.536Z,101161.80
2017-09-18T01:17:09.968Z,101168.68
2017-09-18T01:19:39.179Z,101159.66
2017-09-18T01:22:08.375Z,101159.73
2017-09-18T01:24:37.691Z,101166.13
2017-09-18T01:27:06.180Z,101161.39
2017-09-18T01:29:34.664Z,101163.11
2017-09-18T01:32:03.091Z,101160.99
2017-09-18T01:34:31.627Z,101151.97
2017-09-18T01:37:00.059Z,101154.14
2017-09-18T01:39:28.488Z,101157.17
2017-09-18T01:41:56.971Z,101157.24
2017-09-18T01:44:25.400Z,101156.33
2017-09-18T01:46:53.841Z,101157.19
2017-09-18T01:49:22.272Z,101149.98
2017-09-18T01:51:50.724Z,101149.60
2017-09-18T01:54:19.157Z,101146.61
2017-09-18T01:56:48.361Z,101144.02
2017-09-18T01:59:17.551Z,101143.20
2017-09-18T02:01:46.770Z,101147.53
2017-09-18T02:04:15.196Z,101147.08
2017-09-18T02:06:43.736Z,101151.37
2017-09-18T02:09:12.216Z,101147.53
2017-09-18T02:11:40.691Z,101144.48
2017-09-18T02:14:09.111Z,101144.89
2017-09-18T02:16:37.664Z,101142.40
2017-09-18T02:19:06.083Z,101145.80
2017-09-18T02:21:34.527Z,101138.95
2017-09-18T02:24:03.003Z,101145.37
2017-09-18T02:26:31.492Z,101147.03
2017-09-18T02:28:59.910Z,101150.48
2017-09-18T02:31:28.460Z,101148.32
2017-09-18T02:33:56.887Z,101150.03
2017-09-18T02:36:26.096Z,101153.41
2017-09-18T02:38:55.293Z,101156.77
2017-09-18T02:41:23.764Z,101159.70
2017-09-18T02:43:52.187Z,101156.25
2017-09-18T02:46:21.080Z,101156.59
2017-09-18T02:48:49.567Z,101155.37
2017-09-18T02:51:18.051Z,101148.45
2017-09-18T02:53:46.500Z,101151.37
2017-09-18T02:56:15.691Z,101151.34
2017-09-18T02:58:44.207Z,101143.56
2017-09-18T03:01:12.631Z,101146.95
2017-09-18T03:03:41.075Z,101145.67
2017-09-18T03:06:09.559Z,101149.07
2017-09-18T03:08:38.039Z,101143.39
2017-09-18T03:11:06.458Z,101143.73
2017-09-18T03:13:34.903Z,101145.41
2017-09-18T03:16:03.323Z,101151.70
2017-09-18T03:18:31.776Z,101149.05
2017-09-18T03:21:00.203Z,101155.02
2017-09-18T03:23:28.647Z,101152.41
2017-09-18T03:25:57.102Z,101159.23
2017-09-18T03:28:25.586Z,101161.02
2017-09-18T03:30:54.018Z,101166.56
2017-09-18T03:33:23.972Z,101168.64
2017-09-18T03:35:53.168Z,101168.17
2017-09-18T03:38:22.371Z,101165.59
2017-09-18T03:40:51.583Z,101165.13
2017-09-18T03:43:20.031Z,101168.56
2017-09-18T03:45:49.226Z,101169.85
2017-09-18T03:48:17.679Z,101171.14
2017-09-18T03:50:46.118Z,101170.28
2017-09-18T03:53:14.611Z,101173.67
2017-09-18T03:55:43.059Z,101174.92
2017-09-18T03:58:12.247Z,101175.73
2017-09-18T04:00:40.686Z,101172.66
2017-09-18T04:03:09.106Z,101183.39
2017-09-18T04:05:37.631Z,101189.87
2017-09-18T04:08:06.057Z,101183.83
2017-09-18T04:10:34.514Z,101183.39
2017-09-18T04:13:02.979Z,101182.02
2017-09-18T04:15:31.459Z,101181.63
2017-09-18T04:17:59.888Z,101182.84
2017-09-18T04:20:29.094Z,101184.12
2017-09-18T04:22:58.284Z,101179.45
2017-09-18T04:25:27.500Z,101180.78
2017-09-18T04:27:56.019Z,101182.45
2017-09-18T04:30:24.498Z,101178.16
2017-09-18T04:32:52.923Z,101174.69
2017-09-18T04:35:21.371Z,101179.75
2017-09-18T04:37:49.799Z,101176.66
2017-09-18T04:40:19.751Z,101184.73
2017-09-18T04:42:48.959Z,101188.95
2017-09-18T04:45:17.413Z,101192.73
2017-09-18T04:47:46.599Z,101196.64
2017-09-18T04:50:15.831Z,101188.05
2017-09-18T04:52:44.319Z,101195.30
2017-09-18T04:55:12.747Z,101203.03
2017-09-18T04:57:41.952Z,101201.83
2017-09-18T05:00:11.224Z,101205.36
2017-09-18T05:02:39.671Z,101207.12
2017-09-18T05:05:08.859Z,101205.87
2017-09-18T05:07:38.071Z,101205.44
2017-09-18T05:10:06.495Z,101208.88
2017-09-18T05:12:34.939Z,101205.87
2017-09-18T05:15:03.355Z,101210.67
2017-09-18T05:17:31.809Z,101215.83
2017-09-18T05:20:00.230Z,101219.19
2017-09-18T05:22:28.679Z,101215.31
2017-09-18T05:24:57.151Z,101216.14
2017-09-18T05:27:25.627Z,101216.61
2017-09-18T05:29:54.050Z,101221.41
2017-09-18T05:32:22.496Z,101216.26
2017-09-18T05:34:50.930Z,101214.93
2017-09-18T05:37:20.143Z,101226.53
2017-09-18T05:39:49.567Z,101229.09
2017-09-18T05:42:18.764Z,101229.92
2017-09-18T05:44:47.303Z,101227.30
2017-09-18T05:47:15.747Z,101220.91
2017-09-18T05:49:44.171Z,101223.91
2017-09-18T05:52:13.419Z,101226.41
2017-09-18T05:54:41.843Z,101222.62
2017-09-18T05:57:10.283Z,101220.44
2017-09-18T05:59:38.706Z,101221.68
2017-09-18T06:02:07.151Z,101223.44
2017-09-18T06:04:35.627Z,101223.22
2017-09-18T06:07:04.080Z,101224.77
2017-09-18T06:09:33.276Z,101224.64
2017-09-18T06:12:02.496Z,101221.11
2017-09-18T06:14:30.927Z,101221.88
2017-09-18T06:16:59.350Z,101231.72
2017-09-18T06:19:28.671Z,101237.17
2017-09-18T06:21:57.147Z,101231.86
2017-09-18T06:24:25.630Z,101240.09
2017-09-18T06:26:54.115Z,101240.88
2017-09-18T06:29:22.592Z,101240.64
2017-09-18T06:31:51.060Z,101241.04
2017-09-18T06:34:20.271Z,101245.48
2017-09-18T06:36:48.699Z,101235.66
2017-09-18T06:39:17.144Z,101240.48
2017-09-18T06:41:45.562Z,101244.89
2017-09-18T06:44:14.108Z,101249.19
2017-09-18T06:46:42.588Z,101237.56
2017-09-18T06:49:11.073Z,101239.45
2017-09-18T06:51:39.500Z,101238.58
2017-09-18T06:54:07.943Z,101238.34
2017-09-18T06:56:36.411Z,101242.70
2017-09-18T06:59:04.852Z,101247.79
2017-09-18T07:01:34.147Z,101246.38
2017-09-18T07:04:02.607Z,101254.80
2017-09-18T07:06:31.036Z,101250.48
2017-09-18T07:09:00.246Z,101259.60
2017-09-18T07:11:28.675Z,101254.70
2017-09-18T07:13:57.219Z,101259.61
2017-09-18T07:16:25.652Z,101265.61
2017-09-18T07:18:54.106Z,101271.65
2017-09-18T07:21:22.535Z,101270.45
2017-09-18T07:23:51.776Z,101267.07
2017-09-18T07:26:20.247Z,101270.45
2017-09-18T07:28:48.680Z,101265.20
2017-09-18T07:31:17.127Z,101260.48
2017-09-18T07:33:45.561Z,101262.48
2017-09-18T07:36:14.780Z,101256.16
2017-09-18T07:38:43.266Z,101262.36
2017-09-18T07:41:11.711Z,101264.89
2017-09-18T07:43:40.235Z,101264.95
2017-09-18T07:46:08.734Z,101257.95
2017-09-18T07:48:37.168Z,101258.94
2017-09-18T07:51:06.503Z,101260.95
2017-09-18T07:53:34.932Z,101263.81
2017-09-18T07:56:03.378Z,101260.84
2017-09-18T07:58:31.844Z,101262.73
2017-09-18T08:01:02.662Z,101264.64
2017-09-18T08:03:31.883Z,101256.27
2017-09-18T08:06:00.332Z,101254.41
2017-09-18T08:08:29.522Z,101252.20
2017-09-18T08:10:57.975Z,101255.84
2017-09-18T08:13:26.429Z,101253.19
2017-09-18T08:15:54.866Z,101249.47
2017-09-18T08:18:23.383Z,101250.45
2017-09-18T08:20:51.828Z,101253.94
2017-09-18T08:23:20.352Z,101257.51
2017-09-18T08:25:48.811Z,101256.40
2017-09-18T08:28:18.007Z,101262.06
2017-09-18T08:30:47.228Z,101252.65
2017-09-18T08:33:15.711Z,101263.36
2017-09-18T08:35:44.195Z,101254.58
2017-09-18T08:38:12.678Z,101260.23
2017-09-18T08:40:41.159Z,101257.13
2017-09-18T08:43:09.611Z,101258.97
2017-09-18T08:45:38.843Z,101254.78
2017-09-18T08:48:07.286Z,101247.54
2017-09-18T08:50:36.511Z,101253.78
2017-09-18T08:53:05.003Z,101253.11
2017-09-18T08:55:33.446Z,101256.38
2017-09-18T08:58:01.920Z,101253.68
2017-09-18T09:00:30.351Z,101255.78
2017-09-18T09:02:58.800Z,101253.94
2017-09-18T09:05:27.995Z,101257.77
2017-09-18T09:07:57.224Z,101258.73
2017-09-18T09:10:25.651Z,101251.23
2017-09-18T09:12:54.103Z,101248.01
2017-09-18T09:15:22.530Z,101254.20
2017-09-18T09:17:51.004Z,101249.67
2017-09-18T09:20:19.430Z,101253.09
2017-09-18T09:22:47.850Z,101259.25
2017-09-18T09:25:16.407Z,101257.23
2017-09-18T09:27:44.884Z,101258.51
2017-09-18T09:30:13.342Z,101260.09
2017-09-18T09:32:42.575Z,101267.41
2017-09-18T09:35:11.038Z,101264.75
2017-09-18T09:37:39.523Z,101268.30
2017-09-18T09:40:07.981Z,101275.37
2017-09-18T09:42:37.175Z,101269.67
2017-09-18T09:45:06.391Z,101271.36
2017-09-18T09:47:34.892Z,101268.43
2017-09-18T09:50:03.335Z,101268.66
2017-09-18T09:52:32.582Z,101269.30
2017-09-18T09:55:01.040Z,101268.47
2017-09-18T09:57:29.532Z,101268.39
2017-09-18T09:59:57.983Z,101268.42
2017-09-18T10:02:27.193Z,101262.84
2017-09-18T10:04:56.410Z,101268.86
2017-09-18T10:07:24.878Z,101263.34
2017-09-18T10:09:53.376Z,101262.95
2017-09-18T10:12:21.873Z,101258.68
2017-09-18T10:14:50.333Z,101260.64
2017-09-18T10:17:18.765Z,101265.33
2017-09-18T10:19:47.295Z,101262.69
2017-09-18T10:22:15.721Z,101264.01
2017-09-18T10:24:44.168Z,101259.98
2017-09-18T10:27:12.615Z,101265.83
2017-09-18T10:29:41.820Z,101268.30
2017-09-18T10:32:11.139Z,101265.58
2017-09-18T10:34:39.555Z,101272.95
2017-09-18T10:37:08.109Z,101273.70
2017-09-18T10:39:36.587Z,101272.55
2017-09-18T10:42:05.075Z,101273.23
2017-09-18T10:44:33.494Z,101274.66
2017-09-18T10:47:01.939Z,101280.81
2017-09-18T10:49:30.369Z,101278.22
2017-09-18T10:51:58.819Z,101276.91
2017-09-18T10:54:27.280Z,101273.72
2017-09-18T10:56:55.736Z,101275.72
2017-09-18T10:59:24.955Z,101274.81
2017-09-18T11:01:53.420Z,101274.22
2017-09-18T11:04:22.617Z,101274.34
2017-09-18T11:06:51.943Z,101273.29
2017-09-18T11:09:20.392Z,101272.78
2017-09-18T11:11:49.616Z,101269.88
2017-09-18T11:14:18.113Z,101273.25
2017-09-18T11:16:46.604Z,101274.53
2017-09-18T11:19:15.028Z,101269.16
2017-09-18T11:21:43.489Z,101267.96
2017-09-18T11:24:11.911Z,101265.33
2017-09-18T11:26:41.114Z,101267.37
2017-09-18T11:29:10.299Z,101267.14
2017-09-18T11:31:39.503Z,101268.02
2017-09-18T11:34:08.728Z,101266.74
2017-09-18T11:36:37.176Z,101267.75
2017-09-18T11:39:06.363Z,101264.40
2017-09-18T11:41:34.820Z,101270.91
2017-09-18T11:44:03.239Z,101267.91
2017-09-18T11:46:32.436Z,101270.89
2017-09-18T11:49:01.663Z,101273.30
2017-09-18T11:51:30.084Z,101270.95
2017-09-18T11:53:58.533Z,101273.57
2017-09-18T11:56:27.027Z,101269.44
2017-09-18T11:58:55.487Z,101269.89
2017-09-18T12:01:23.983Z,101269.83
2017-09-18T12:03:52.419Z,101274.57
2017-09-18T12:06:22.357Z,101273.84
2017-09-18T12:08:51.571Z,101271.20
2017-09-18T12:11:19.996Z,101269.22
2017-09-18T12:13:48.531Z,101276.85
2017-09-18T12:16:16.957Z,101279.92
2017-09-18T12:18:45.500Z,101278.62
2017-09-18T12:21:13.978Z,101275.55
2017-09-18T12:23:42.420Z,101273.39
2017-09-18T12:26:10.939Z,101273.38
2017-09-18T12:28:39.445Z,101272.59
2017-09-18T12:31:07.928Z,101274.52
2017-09-18T12:33:36.372Z,101268.73
2017-09-18T12:36:05.592Z,101273.30
2017-09-18T12:38:34.035Z,101265.66
2017-09-18T12:41:03.219Z,101269.09
2017-09-18T12:43:31.666Z,101269.73
2017-09-18T12:46:00.100Z,101266.91
2017-09-18T12:48:29.311Z,101265.00
2017-09-18T12:50:58.503Z,101262.16
2017-09-18T12:53:27.747Z,101258.34
2017-09-18T12:55:56.167Z,101255.11
2017-09-18T12:58:25.428Z,101258.02
2017-09-18T13:00:53.910Z,101252.40
2017-09-18T13:03:22.377Z,101257.83
2017-09-18T13:05:50.859Z,101255.80
2017-09-18T13:08:19.299Z,101255.08
2017-09-18T13:10:47.734Z,101256.91
2017-09-18T13:13:16.199Z,101256.42
2017-09-18T13:15:44.629Z,101260.25
2017-09-18T13:18:13.051Z,101262.16
2017-09-18T13:20:41.488Z,101257.69
2017-09-18T13:23:10.028Z,101256.49
2017-09-18T13:25:38.476Z,101264.45
2017-09-18T13:28:07.672Z,101263.45
2017-09-18T13:30:36.879Z,101269.42
2017-09-18T13:33:06.067Z,101269.97
2017-09-18T13:35:34.506Z,101272.84
2017-09-18T13:38:02.958Z,101263.73
2017-09-18T13:40:31.404Z,101266.88
2017-09-18T13:42:59.828Z,101264.11
2017-09-18T13:45:28.327Z,101270.50
2017-09-18T13:47:56.797Z,101266.69
2017-09-18T13:50:25.280Z,101269.64
2017-09-18T13:52:53.695Z,101269.55
2017-09-18T13:55:22.231Z,101265.27
2017-09-18T13:57:50.650Z,101260.29
2017-09-18T14:00:19.077Z,101264.24
2017-09-18T14:02:48.397Z,101266.84
2017-09-18T14:05:16.887Z,101260.65
2017-09-18T14:07:45.342Z,101258.23
2017-09-18T14:10:14.533Z,101261.02
2017-09-18T14:12:43.749Z,101264.73
2017-09-18T14:15:12.944Z,101262.62
2017-09-18T14:17:42.266Z,101271.59
2017-09-18T14:20:10.687Z,101266.43
2017-09-18T14:22:39.131Z,101259.76
2017-09-18T14:25:07.560Z,101270.63
2017-09-18T14:27:36.007Z,101265.39
2017-09-18T14:30:04.436Z,101263.14
2017-09-18T14:32:33.652Z,101266.05
2017-09-18T14:35:02.852Z,101263.20
2017-09-18T14:37:32.160Z,101260.26
2017-09-18T14:40:00.580Z,101256.81
2017-09-18T14:42:29.022Z,101267.53
2017-09-18T14:44:57.443Z,101263.34
2017-09-18T14:47:25.883Z,101261.50
2017-09-18T14:49:54.303Z,101264.45
2017-09-18T14:52:22.852Z,101255.80
2017-09-18T14:54:51.280Z,101253.73
2017-09-18T14:57:19.710Z,101261.71
2017-09-18T14:59:48.192Z,101259.52
2017-09-18T15:02:16.644Z,101273.17
2017-09-18T15:04:45.885Z,101268.42
2017-09-18T15:07:14.356Z,101271.77
2017-09-18T15:09:42.835Z,101267.74
2017-09-18T15:12:11.326Z,101271.16
2017-09-18T15:14:39.747Z,101275.82
2017-09-18T15:17:08.216Z,101278.17
2017-09-18T15:19:36.639Z,101278.13
2017-09-18T15:22:05.823Z,101280.30
2017-09-18T15:24:34.354Z,101277.44
2017-09-18T15:27:02.787Z,101282.22
2017-09-18T15:29:31.231Z,101277.55
2017-09-18T15:32:00.597Z,101271.93
2017-09-18T15:34:29.800Z,101277.70
2017-09-18T15:36:58.987Z,101280.95
2017-09-18T15:39:28.187Z,101276.22
2017-09-18T15:41:57.380Z,101282.60
2017-09-18T15:44:26.596Z,101283.64
2017-09-18T15:46:55.082Z,101278.02
2017-09-18T15:49:23.607Z,101283.11
2017-09-18T15:51:52.048Z,101280.05
2017-09-18T15:54:20.501Z,101277.63
2017-09-18T15:56:48.923Z,101275.05
2017-09-18T15:59:17.367Z,101275.58
2017-09-18T16:01:46.591Z,101270.13
2017-09-18T16:04:15.040Z,101274.23
2017-09-18T16:06:43.559Z,101278.41
2017-09-18T16:09:12.032Z,101282.58
2017-09-18T16:11:40.523Z,101277.60
2017-09-18T16:14:08.943Z,101280.80
2017-09-18T16:16:37.483Z,101283.53
2017-09-18T16:19:05.976Z,101280.60
2017-09-18T16:21:34.415Z,101276.48
2017-09-18T16:24:02.938Z,101275.22
2017-09-18T16:26:31.380Z,101277.96
2017-09-18T16:28:59.812Z,101280.67
2017-09-18T16:31:28.281Z,101280.19
2017-09-18T16:33:56.708Z,101281.41
2017-09-18T16:36:25.235Z,101285.27
2017-09-18T16:38:53.659Z,101287.68
2017-09-18T16:41:22.107Z,101287.02
2017-09-18T16:43:50.532Z,101291.44
2017-09-18T16:46:19.078Z,101293.28
2017-09-18T16:48:47.552Z,101295.77
2017-09-18T16:51:16.000Z,101297.34
2017-09-18T16:53:45.192Z,101299.61
2017-09-18T16:56:13.717Z,101307.24
2017-09-18T16:58:42.196Z,101309.02
2017-09-18T17:01:10.672Z,101307.06
2017-09-18T17:03:39.091Z,101314.14
2017-09-18T17:06:07.645Z,101309.16
2017-09-18T17:08:36.063Z,101305.92
2017-09-18T17:11:04.503Z,101313.48
2017-09-18T17:13:32.933Z,101315.50
2017-09-18T17:16:01.380Z,101318.09
2017-09-18T17:18:29.803Z,101314.34
2017-09-18T17:20:58.317Z,101311.72
2017-09-18T17:23:26.812Z,101322.80
2017-09-18T17:25:55.267Z,101323.77
2017-09-18T17:28:24.508Z,101329.04
2017-09-18T17:30:52.934Z,101328.39
2017-09-18T17:33:21.465Z,101329.88
2017-09-18T17:35:49.940Z,101333.58
2017-09-18T17:38:18.388Z,101341.28
2017-09-18T17:40:47.619Z,101336.65
2017-09-18T17:43:16.104Z,101342.08
2017-09-18T17:45:44.548Z,101347.70
2017-09-18T17:48:13.764Z,101347.77
2017-09-18T17:50:42.970Z,101342.66
2017-09-18T17:53:11.464Z,101348.14
2017-09-18T17:55:39.889Z,101348.63
2017-09-18T17:58:08.429Z,101357.28
2017-09-18T18:00:36.903Z,101356.22
2017-09-18T18:03:05.352Z,101357.03
2017-09-18T18:05:33.876Z,101359.77
2017-09-18T18:08:02.329Z,101366.16
2017-09-18T18:10:31.555Z,101371.42
2017-09-18T18:13:00.052Z,101372.75
2017-09-18T18:15:28.520Z,101376.27
2017-09-18T18:17:56.983Z,101372.47
2017-09-18T18:20:26.176Z,101372.14
2017-09-18T18:22:55.358Z,101379.09
2017-09-18T18:25:23.884Z,101379.02
2017-09-18T18:27:52.363Z,101379.52
2017-09-18T18:30:20.814Z,101377.81
2017-09-18T18:32:50.054Z,101379.95
2017-09-18T18:35:18.500Z,101378.75
2017-09-18T18:37:47.686Z,101385.20
2017-09-18T18:40:16.913Z,101382.70
2017-09-18T18:42:45.344Z,101384.83
2017-09-18T18:45:13.892Z,101385.71
2017-09-18T18:47:42.323Z,101389.58
2017-09-18T18:50:10.768Z,101395.89
2017-09-18T18:52:39.201Z,101389.78
2017-09-18T18:55:08.442Z,101395.56
2017-09-18T18:57:36.876Z,101395.77
2017-09-18T19:00:06.096Z,101392.20
2017-09-18T19:02:34.627Z,101392.27
2017-09-18T19:05:03.169Z,101398.79
2017-09-18T19:07:31.592Z,101399.69
2017-09-18T19:10:00.036Z,101401.75
2017-09-18T19:12:28.493Z,101399.38
2017-09-18T19:14:57.725Z,101391.08
2017-09-18T19:17:26.194Z,101396.58
2017-09-18T19:19:54.627Z,101395.70
2017-09-18T19:22:23.071Z,101400.81
2017-09-18T19:24:51.509Z,101397.49
2017-09-18T19:27:20.843Z,101398.00
2017-09-18T19:29:49.271Z,101403.13
2017-09-18T19:32:17.722Z,101403.62
2017-09-18T19:34:46.276Z,101401.45
2017-09-18T19:37:15.487Z,101396.13
2017-09-18T19:39:43.963Z,101394.72
2017-09-18T19:42:12.405Z,101395.34
2017-09-18T19:44:40.940Z,101395.98
2017-09-18T19:47:09.383Z,101396.48
2017-09-18T19:49:38.579Z,101398.64
2017-09-18T19:52:07.815Z,101397.11
2017-09-18T19:54:36.248Z,101403.23
2017-09-18T19:57:04.705Z,101406.99
2017-09-18T19:59:33.161Z,101412.66
2017-09-18T20:02:01.743Z,101413.73
2017-09-18T20:04:30.223Z,101413.41
2017-09-18T20:06:58.652Z,101421.60
2017-09-18T20:09:27.103Z,101422.19
2017-09-18T20:11:55.535Z,101416.28
2017-09-18T20:14:24.752Z,101413.33
2017-09-18T20:16:53.959Z,101418.58
2017-09-18T20:19:22.407Z,101425.05
2017-09-18T20:21:50.840Z,101424.30
2017-09-18T20:24:19.312Z,101426.46
2017-09-18T20:26:47.788Z,101428.48
2017-09-18T20:29:16.235Z,101433.65
2017-09-18T20:31:44.664Z,101427.44
2017-09-18T20:34:13.108Z,101426.52
2017-09-18T20:36:42.454Z,101420.91
2017-09-18T20:39:10.903Z,101427.06
2017-09-18T20:41:40.092Z,101423.51
2017-09-18T20:44:09.316Z,101420.48
2017-09-18T20:46:37.804Z,101423.50
2017-09-18T20:49:06.256Z,101425.72
2017-09-18T20:51:35.447Z,101424.06
2017-09-18T20:54:04.883Z,101416.91
2017-09-18T20:56:33.372Z,101420.95
2017-09-18T20:59:01.815Z,101421.88
2017-09-18T21:01:31.048Z,101423.13
2017-09-18T21:03:59.538Z,101426.55
2017-09-18T21:06:27.964Z,101426.63
2017-09-18T21:08:56.509Z,101421.44
2017-09-18T21:11:24.937Z,101416.28
2017-09-18T21:13:54.176Z,101418.86
2017-09-18T21:16:22.640Z,101418.96
2017-09-18T21:18:51.876Z,101413.75
2017-09-18T21:21:20.307Z,101417.74
2017-09-18T21:23:49.500Z,101418.59
2017-09-18T21:26:18.709Z,101423.77
2017-09-18T21:28:47.943Z,101425.11
2017-09-18T21:31:16.407Z,101423.35
2017-09-18T21:33:44.897Z,101423.83
2017-09-18T21:36:13.348Z,101423.03
2017-09-18T21:38:42.544Z,101423.03
2017-09-18T21:41:11.752Z,101423.98
2017-09-18T21:43:40.950Z,101422.81
2017-09-18T21:46:10.163Z,101419.80
2017-09-18T21:48:38.582Z,101416.41
2017-09-18T21:51:07.029Z,101414.69
2017-09-18T21:53:35.456Z,101412.30
2017-09-18T21:56:03.896Z,101413.71
2017-09-18T21:58:32.320Z,101411.23
2017-09-18T22:01:00.775Z,101411.28
2017-09-18T22:03:29.195Z,101405.44
2017-09-18T22:05:57.651Z,101404.95
2017-09-18T22:08:26.075Z,101404.91
2017-09-18T22:10:55.288Z,101401.52
2017-09-18T22:13:23.774Z,101406.73
2017-09-18T22:15:52.269Z,101400.77
2017-09-18T22:18:20.696Z,101403.78
2017-09-18T22:20:49.229Z,101402.47
2017-09-18T22:23:17.715Z,101405.50
2017-09-18T22:25:46.155Z,101405.97
2017-09-18T22:28:14.587Z,101411.56
2017-09-18T22:30:43.031Z,101412.38
2017-09-18T22:33:12.271Z,101411.58
2017-09-18T22:35:40.715Z,101415.16
2017-09-18T22:38:09.905Z,101420.84
2017-09-18T22:40:39.133Z,101414.91
2017-09-18T22:43:07.555Z,101422.27
2017-09-18T22:45:35.991Z,101421.36
2017-09-18T22:48:04.494Z,101421.75
2017-09-18T22:50:32.928Z,101412.70
2017-09-18T22:53:02.142Z,101410.55
2017-09-18T22:55:30.611Z,101415.72
2017-09-18T22:57:59.839Z,101414.43
2017-09-18T23:00:28.316Z,101416.69
2017-09-18T23:02:56.805Z,101413.72
2017-09-18T23:05:25.227Z,101416.00
2017-09-18T23:07:53.681Z,101412.95
2017-09-18T23:10:22.157Z,101409.84
2017-09-18T23:12:50.604Z,101410.33
2017-09-18T23:15:19.800Z,101412.47
2017-09-18T23:17:49.022Z,101417.55
2017-09-18T23:20:17.447Z,101410.23
2017-09-18T23:22:45.987Z,101411.47
2017-09-18T23:25:14.471Z,101420.50
2017-09-18T23:27:42.955Z,101410.17
2017-09-18T23:30:11.380Z,101416.68
2017-09-18T23:32:39.841Z,101416.22
2017-09-18T23:35:08.259Z,101416.22
2017-09-18T23:37:36.708Z,101415.02
2017-09-18T23:40:05.131Z,101413.76
2017-09-18T23:42:34.335Z,101415.57
2017-09-18T23:45:03.523Z,101413.51
2017-09-18T23:47:32.729Z,101416.52
2017-09-18T23:50:02.340Z,101415.22
2017-09-18T23:52:31.660Z,101412.64
2017-09-18T23:55:00.148Z,101414.33
2017-09-18T23:57:28.599Z,101414.28
2017-09-18T23:59:57.822Z,101411.70
